• Join FlightAware (Why Join?)
  • Login
  • US Flag 
12:27AM EDT


 

Airport Tracker/Info


-or-


 

Live Flight TrackerFlight Track Log ✈ GJS3710 ✈ 08-May-2013 ✈ KORD - KALB

Flight Track Log - Related Links

Times and Time Zones

All times are in EDT time to prevent confusion due to time zone crossing. See the GJS3710 flight status page for this flight to view local times or setup timezone preferences in your user account.

Time Position Orientation Groundspeed Altitude Reporting Facility
EDT Latitude Longitude Course Direction KTS MPH feet Rate Location/Type
10:09PM 41.9167 -87.8833 86° East 190 219 2,500  Level Chicago TRACON
10:10PM 41.9333 -87.8000 75° East 237 273 4,500 1,980 Climbing Chicago TRACON
10:11PM 41.9500 -87.7000 77° East 285 328 6,500 2,340 Climbing Chicago TRACON
10:12PM 42.1542 -87.3875 66° East  Level FlightAware Approximate
10:12PM 42.0000 -87.6167 51° Northeast 289 333 9,300  Level Chicago TRACON
10:13PM 42.1987 -87.2541 66° East  Level FlightAware Approximate
10:14PM 42.2431 -87.1207 66° East  Level FlightAware Approximate
10:14PM 42.0967 -87.4272 55° Northeast 299 344 14,200  Level Chicago Center
10:15PM 42.2676 -86.9807 86° East  Level FlightAware Approximate
10:15PM 42.1364 -87.3175 64° Northeast 336 387 15,700  Level Chicago Center
10:16PM 42.1483 -87.1819 83° East 365 420 17,100 1,320 Climbing Chicago Center
10:18PM 42.1592 -87.0369 84° East 387 445 18,500 1,380 Climbing Chicago Center
10:19PM 42.1714 -86.8861 84° East 404 465 20,000 1,440 Climbing Chicago Center
10:20PM 42.1833 -86.7311 84° East 416 479 21,500 1,560 Climbing Chicago Center
10:21PM 42.1969 -86.5519 84° East 421 484 23,200 1,560 Climbing Chicago Center
10:22PM 42.2083 -86.3928 84° East 423 487 24,800 1,320 Climbing Chicago Center
10:23PM 42.2200 -86.2344 84° East 425 489 26,000 1,140 Climbing Chicago Center
10:24PM 42.2319 -86.0739 84° East 429 494 27,200 840 Climbing Chicago Center
10:25PM 42.2419 -85.9233 85° East 437 503 27,800 720 Climbing Chicago Center
10:26PM 42.2550 -85.7217 85° East 450 518 28,700 780 Climbing Chicago Center
10:27PM 42.2664 -85.5500 85° East 460 529 29,400 660 Climbing Chicago Center
10:28PM 42.2794 -85.3736 84° East 472 543 30,100 660 Climbing Chicago Center
10:28PM 42.2906 -85.2433 83° East 460 529 30,600 660 Climbing Cleveland Center
10:29PM 42.3019 -85.0672 85° East 460 529 31,300 600 Climbing Cleveland Center
10:30PM 42.3022 -84.8931 90° East 460 529 31,800 540 Climbing Cleveland Center
10:31PM 42.2964 -84.7103 92° East 469 540 32,400 600 Climbing Cleveland Center
10:32PM 42.2856 -84.5494 95° East 469 540 33,100 720 Climbing Cleveland Center
10:33PM 42.2997 -84.3761 84° East 469 540 33,900 780 Climbing Cleveland Center
10:34PM 42.3156 -84.2058 83° East 464 534 34,700 780 Climbing Cleveland Center
10:35PM 42.3314 -84.0325 83° East 459 528 35,500 780 Climbing Cleveland Center
10:36PM 42.3467 -83.8619 83° East 459 528 36,300 780 Climbing Cleveland Center
10:37PM 42.3617 -83.6969 83° East 459 528 37,100 780 Climbing Cleveland Center
10:38PM 42.3744 -83.5289 84° East 454 522 37,900 600 Climbing Cleveland Center
10:39PM 42.3869 -83.3664 84° East 442 509 38,400 480 Climbing Cleveland Center
10:40PM 42.4017 -83.1869 84° East 437 503 38,900 300 Climbing Cleveland Center
10:41PM 42.4133 -83.0300 84° East 437 503 39,000  Climbing Cleveland Center
10:42PM 42.4250 -82.8644 84° East 437 503 39,000  Level Cleveland Center
10:43PM 42.4386 -82.6961 84° East 443 510 39,000  Level Cleveland Center
10:44PM 42.4500 -82.5306 85° East 443 510 39,000  Level Cleveland Center
10:45PM 42.4611 -82.3619 85° East 443 510 39,000  Level Cleveland Center
10:46PM 42.4739 -82.1906 84° East 443 510 39,000  Level Cleveland Center
10:47PM 42.4867 -82.0247 84° East 443 510 39,000  Level Cleveland Center
10:48PM 42.4969 -81.8533 85° East 443 510 39,000  Level Cleveland Center
10:49PM 42.5089 -81.7014 84° East 443 510 39,000  Level Cleveland Center
10:50PM 42.5208 -81.5353 84° East 443 510 39,000  Level Cleveland Center
10:51PM 42.5306 -81.3722 85° East 443 510 39,000  Level Cleveland Center
10:52PM 42.5419 -81.2031 85° East 443 510 39,000  Level Cleveland Center
10:53PM 42.5511 -81.0369 86° East 443 510 39,000  Level Cleveland Center
10:54PM 42.5600 -80.8678 86° East 443 510 39,000  Level Cleveland Center
10:55PM 42.5686 -80.6819 86° East 443 510 39,000  Level Cleveland Center
10:56PM 42.5789 -80.5128 85° East 443 510 39,000  Level Cleveland Center
10:57PM 42.5892 -80.3406 85° East 450 518 39,000  Level Cleveland Center
10:58PM 42.5992 -80.1686 85° East 450 518 39,000  Level Cleveland Center
10:59PM 42.6089 -79.9992 85° East 460 529 39,000  Level Cleveland Center
11:00PM 42.6161 -79.8411 86° East 460 529 39,000  Level Cleveland Center
11:01PM 42.6256 -79.6689 86° East 460 529 39,000  Level Cleveland Center
11:02PM 42.6344 -79.4967 86° East 455 524 39,000  Level Cleveland Center
11:03PM 42.6408 -79.3272 87° East 455 524 39,000  Level Cleveland Center
11:04PM 42.6475 -79.1606 87° East 455 524 39,000  Level Cleveland Center
11:05PM 42.6533 -78.9853 87° East 455 524 39,000  Level Cleveland Center
11:06PM 42.6614 -78.8158 86° East 455 524 39,000  Level Cleveland Center
11:07PM 42.6692 -78.6461 86° East 455 524 39,000  Level Cleveland Center
11:08PM 42.6744 -78.4764 88° East 450 518 39,000  Level Cleveland Center
11:09PM 42.6794 -78.3039 88° East 450 518 39,000  Level Cleveland Center
11:10PM 42.6864 -78.1342 87° East 450 518 39,000 -120 Level Cleveland Center
11:11PM 42.6911 -77.9647 88° East 450 518 38,800 -600 Descending Cleveland Center
11:12PM 42.6975 -77.7975 87° East 445 512 37,800 -1,140 Descending Cleveland Center
11:13PM 42.7022 -77.6447 88° East 445 512 36,600 -1,500 Descending Cleveland Center
11:14PM 42.7075 -77.4525 88° East 431 496 34,900 -1,320 Descending Cleveland Center
11:17PM 42.7139 -77.1403 88° East 416 479 32,600 -1,140 Descending Boston Center
11:18PM 42.7181 -76.9850 88° East 416 479 31,400 -1,260 Descending Boston Center
11:19PM 42.7222 -76.8242 88° East 416 479 30,100 -1,200 Descending Boston Center
11:20PM 42.7261 -76.6689 88° East 416 479 29,000 -780 Descending Boston Center
11:21PM 42.7292 -76.5250 88° East 401 461 28,600 -840 Descending Boston Center
11:22PM 42.7325 -76.3753 88° East 395 455 27,400 -1,380 Descending Boston Center
11:23PM 42.7342 -76.2056 89° East 395 455 25,900 -1,500 Descending Boston Center
11:24PM 42.7369 -76.0558 89° East 395 455 24,500 -1,440 Descending Boston Center
11:25PM 42.7372 -75.9061 90° East 400 460 23,100 -1,440 Descending Boston Center
11:26PM 42.7417 -75.7650 87° East 386 444 21,700 -1,440 Descending Boston Center
11:27PM 42.7433 -75.6294 89° East 375 432 20,300 -1,440 Descending Boston Center
11:28PM 42.7431 -75.4908 90° East 361 415 18,900 -1,260 Descending Boston Center
11:29PM 42.7461 -75.3722 88° East 355 409 17,800 -1,200 Descending Boston Center
11:30PM 42.7472 -75.2419 89° East 344 396 16,600 -1,320 Descending Boston Center
11:31PM 42.7481 -75.1206 89° East 334 384 15,200 -1,440 Descending Boston Center
11:32PM 42.7489 -74.9989 89° East 323 372 13,800 -1,440 Descending Boston Center
11:32PM 42.7486 -74.9142 90° East 320 368 12,900 -1,440 Descending Boston Center
11:33PM 42.7494 -74.8775 88° East 323 372 12,400 -1,080 Descending Boston Center
11:34PM 42.7481 -74.7389 91° East 329 379 11,400 -720 Descending Boston Center
11:35PM 42.7481 -74.6342 90° East 324 373 11,000 -240 Descending Boston Center
11:36PM 42.7481 -74.5267 90° East 316 364 11,000 -600 Level Boston Center
11:37PM 42.7503 -74.4081 88° East 298 343 9,900 -1,320 Descending Boston Center
11:38PM 42.7500 -74.2919 90° East 274 315 8,400 -1,500 Descending Boston Center
11:39PM 42.7597 -74.2047 81° East 268 308 6,900 -1,740 Descending Boston Center
11:40PM 42.7864 -74.0950 72° East 268 308 5,000 -1,500 Descending Boston Center
11:41PM 42.8064 -74.0136 71° East 263 303 3,900 -1,200 Descending Boston Center
11:42PM 42.8306 -73.9236 70° East 258 297 2,700 -900 Descending Boston Center
11:43PM 42.8689 -73.8567 52° Northeast 247 284 2,100 -360 Descending Boston Center
11:44PM 42.8864 -73.7803 73° East 221 254 2,000 -120 Descending Boston Center